sensor_id;sensor_type;location;lat;lon;timestamp;temperature;humidity
17252;DHT22;8742;51.716;8.790;2023-04-03T00:00:48;1.10;99.90
17252;DHT22;8742;51.716;8.790;2023-04-03T00:03:17;1.00;99.90
17252;DHT22;8742;51.716;8.790;2023-04-03T00:05:44;0.90;99.90
17252;DHT22;8742;51.716;8.790;2023-04-03T00:08:11;0.90;99.90
17252;DHT22;8742;51.716;8.790;2023-04-03T00:10:38;0.80;99.90
17252;DHT22;8742;51.716;8.790;2023-04-03T00:13:06;0.80;99.90
17252;DHT22;8742;51.716;8.790;2023-04-03T00:15:34;0.80;99.90
17252;DHT22;8742;51.716;8.790;2023-04-03T00:18:01;0.70;99.90
17252;DHT22;8742;51.716;8.790;2023-04-03T00:20:29;0.70;99.90
17252;DHT22;8742;51.716;8.790;2023-04-03T00:22:57;0.70;99.90
17252;DHT22;8742;51.716;8.790;2023-04-03T00:25:24;0.60;99.90
17252;DHT22;8742;51.716;8.790;2023-04-03T00:27:51;0.60;99.90
17252;DHT22;8742;51.716;8.790;2023-04-03T00:30:20;0.60;99.90
17252;DHT22;8742;51.716;8.790;2023-04-03T00:32:47;0.50;99.90
17252;DHT22;8742;51.716;8.790;2023-04-03T00:35:15;0.50;99.90
17252;DHT22;8742;51.716;8.790;2023-04-03T00:37:43;0.40;99.90
17252;DHT22;8742;51.716;8.790;2023-04-03T00:40:12;0.40;99.90
17252;DHT22;8742;51.716;8.790;2023-04-03T00:42:41;0.40;99.90
17252;DHT22;8742;51.716;8.790;2023-04-03T00:45:38;0.40;99.90
17252;DHT22;8742;51.716;8.790;2023-04-03T00:48:08;0.40;99.90
17252;DHT22;8742;51.716;8.790;2023-04-03T00:50:37;0.40;99.90
17252;DHT22;8742;51.716;8.790;2023-04-03T00:53:09;0.40;99.90
17252;DHT22;8742;51.716;8.790;2023-04-03T00:55:38;0.40;99.90
17252;DHT22;8742;51.716;8.790;2023-04-03T00:58:05;0.40;99.90
17252;DHT22;8742;51.716;8.790;2023-04-03T01:00:33;0.40;99.90
17252;DHT22;8742;51.716;8.790;2023-04-03T01:03:00;0.40;99.90
17252;DHT22;8742;51.716;8.790;2023-04-03T01:05:27;0.40;99.90
17252;DHT22;8742;51.716;8.790;2023-04-03T01:07:54;0.30;99.90
17252;DHT22;8742;51.716;8.790;2023-04-03T01:10:23;0.30;99.90
17252;DHT22;8742;51.716;8.790;2023-04-03T01:12:51;0.30;99.90
17252;DHT22;8742;51.716;8.790;2023-04-03T01:15:20;0.30;99.90
17252;DHT22;8742;51.716;8.790;2023-04-03T01:17:49;0.30;99.90
17252;DHT22;8742;51.716;8.790;2023-04-03T01:23:32;0.30;99.90
17252;DHT22;8742;51.716;8.790;2023-04-03T01:26:04;0.30;99.90
17252;DHT22;8742;51.716;8.790;2023-04-03T01:28:32;0.30;99.90
17252;DHT22;8742;51.716;8.790;2023-04-03T01:31:05;0.30;99.90
17252;DHT22;8742;51.716;8.790;2023-04-03T01:33:37;0.20;99.90
17252;DHT22;8742;51.716;8.790;2023-04-03T01:36:05;0.20;99.90
17252;DHT22;8742;51.716;8.790;2023-04-03T01:38:32;0.20;99.90
17252;DHT22;8742;51.716;8.790;2023-04-03T01:40:59;0.20;99.90
17252;DHT22;8742;51.716;8.790;2023-04-03T01:43:26;0.20;99.90
17252;DHT22;8742;51.716;8.790;2023-04-03T01:45:53;0.20;99.90
17252;DHT22;8742;51.716;8.790;2023-04-03T01:48:20;0.20;99.90
17252;DHT22;8742;51.716;8.790;2023-04-03T01:50:48;0.10;99.90
17252;DHT22;8742;51.716;8.790;2023-04-03T01:53:15;0.10;99.90
17252;DHT22;8742;51.716;8.790;2023-04-03T01:55:42;0.10;99.90
17252;DHT22;8742;51.716;8.790;2023-04-03T01:58:09;0.20;99.90
17252;DHT22;8742;51.716;8.790;2023-04-03T02:00:36;0.10;99.90
17252;DHT22;8742;51.716;8.790;2023-04-03T02:03:03;0.10;99.90
17252;DHT22;8742;51.716;8.790;2023-04-03T02:05:30;0.10;99.90
17252;DHT22;8742;51.716;8.790;2023-04-03T02:07:58;0.10;99.90
17252;DHT22;8742;51.716;8.790;2023-04-03T02:10:25;0.10;99.90
17252;DHT22;8742;51.716;8.790;2023-04-03T02:12:52;0.10;99.90
17252;DHT22;8742;51.716;8.790;2023-04-03T02:15:19;0.20;99.90
17252;DHT22;8742;51.716;8.790;2023-04-03T02:17:46;0.10;99.90
17252;DHT22;8742;51.716;8.790;2023-04-03T02:20:12;0.10;99.90
17252;DHT22;8742;51.716;8.790;2023-04-03T02:22:39;0.10;99.90
17252;DHT22;8742;51.716;8.790;2023-04-03T02:25:08;0.00;99.90
17252;DHT22;8742;51.716;8.790;2023-04-03T02:27:35;0.00;99.90
17252;DHT22;8742;51.716;8.790;2023-04-03T02:30:04;-0.10;99.90
17252;DHT22;8742;51.716;8.790;2023-04-03T02:32:31;-0.10;99.90
17252;DHT22;8742;51.716;8.790;2023-04-03T02:34:58;-0.20;99.90
17252;DHT22;8742;51.716;8.790;2023-04-03T02:37:25;-0.30;99.90
17252;DHT22;8742;51.716;8.790;2023-04-03T02:39:52;-0.30;99.90
17252;DHT22;8742;51.716;8.790;2023-04-03T02:42:20;-0.40;99.90
17252;DHT22;8742;51.716;8.790;2023-04-03T02:44:47;-0.50;99.90
17252;DHT22;8742;51.716;8.790;2023-04-03T02:47:14;-0.50;99.90
17252;DHT22;8742;51.716;8.790;2023-04-03T02:49:41;-0.60;99.90
17252;DHT22;8742;51.716;8.790;2023-04-03T02:52:09;-0.70;99.90
17252;DHT22;8742;51.716;8.790;2023-04-03T02:54:35;-0.80;99.90
17252;DHT22;8742;51.716;8.790;2023-04-03T02:57:02;-0.80;99.90
17252;DHT22;8742;51.716;8.790;2023-04-03T02:59:30;-0.90;99.90
17252;DHT22;8742;51.716;8.790;2023-04-03T03:01:57;-0.90;99.90
17252;DHT22;8742;51.716;8.790;2023-04-03T03:04:24;-1.00;99.90
17252;DHT22;8742;51.716;8.790;2023-04-03T03:06:51;-1.10;99.90
17252;DHT22;8742;51.716;8.790;2023-04-03T03:09:18;-1.10;99.90
17252;DHT22;8742;51.716;8.790;2023-04-03T03:11:45;-1.20;99.90
17252;DHT22;8742;51.716;8.790;2023-04-03T03:14:12;-1.20;99.90
17252;DHT22;8742;51.716;8.790;2023-04-03T03:16:40;-1.30;99.90
17252;DHT22;8742;51.716;8.790;2023-04-03T03:19:07;-1.40;99.90
17252;DHT22;8742;51.716;8.790;2023-04-03T03:21:34;-1.40;99.90
17252;DHT22;8742;51.716;8.790;2023-04-03T03:24:00;-1.40;99.90
17252;DHT22;8742;51.716;8.790;2023-04-03T03:26:27;-1.40;99.90
17252;DHT22;8742;51.716;8.790;2023-04-03T03:28:54;-1.50;99.90
17252;DHT22;8742;51.716;8.790;2023-04-03T03:31:21;-1.50;99.90
17252;DHT22;8742;51.716;8.790;2023-04-03T03:33:49;-1.50;99.90
17252;DHT22;8742;51.716;8.790;2023-04-03T03:36:16;-1.50;99.90
17252;DHT22;8742;51.716;8.790;2023-04-03T03:38:43;-1.50;99.90
17252;DHT22;8742;51.716;8.790;2023-04-03T03:41:10;-1.50;99.90
17252;DHT22;8742;51.716;8.790;2023-04-03T03:43:37;-1.50;99.90
17252;DHT22;8742;51.716;8.790;2023-04-03T03:46:03;-1.60;99.90
17252;DHT22;8742;51.716;8.790;2023-04-03T03:48:30;-1.60;99.90
17252;DHT22;8742;51.716;8.790;2023-04-03T03:50:59;-1.60;99.90
17252;DHT22;8742;51.716;8.790;2023-04-03T03:53:26;-1.60;99.90
17252;DHT22;8742;51.716;8.790;2023-04-03T03:55:52;-1.70;99.90
17252;DHT22;8742;51.716;8.790;2023-04-03T03:58:19;-1.60;99.90
17252;DHT22;8742;51.716;8.790;2023-04-03T04:00:47;-1.70;99.90
17252;DHT22;8742;51.716;8.790;2023-04-03T04:03:14;-1.70;99.90
17252;DHT22;8742;51.716;8.790;2023-04-03T04:05:40;-1.70;99.90
17252;DHT22;8742;51.716;8.790;2023-04-03T04:08:09;-1.70;99.90
17252;DHT22;8742;51.716;8.790;2023-04-03T04:10:37;-1.80;99.90
17252;DHT22;8742;51.716;8.790;2023-04-03T04:13:04;-1.80;99.90
17252;DHT22;8742;51.716;8.790;2023-04-03T04:15:31;-1.80;99.90
17252;DHT22;8742;51.716;8.790;2023-04-03T04:17:58;-1.80;99.90
17252;DHT22;8742;51.716;8.790;2023-04-03T04:20:25;-1.90;99.90
17252;DHT22;8742;51.716;8.790;2023-04-03T04:22:51;-1.90;99.90
17252;DHT22;8742;51.716;8.790;2023-04-03T04:25:20;-1.90;99.90
17252;DHT22;8742;51.716;8.790;2023-04-03T04:27:46;-1.90;99.90
17252;DHT22;8742;51.716;8.790;2023-04-03T04:30:14;-1.90;99.90
17252;DHT22;8742;51.716;8.790;2023-04-03T04:32:41;-1.90;99.90
17252;DHT22;8742;51.716;8.790;2023-04-03T04:35:08;-1.90;99.90
17252;DHT22;8742;51.716;8.790;2023-04-03T04:37:35;-1.80;99.90
17252;DHT22;8742;51.716;8.790;2023-04-03T04:40:02;-1.80;99.90
17252;DHT22;8742;51.716;8.790;2023-04-03T04:42:31;-1.80;99.90
17252;DHT22;8742;51.716;8.790;2023-04-03T04:44:57;-1.80;99.90
17252;DHT22;8742;51.716;8.790;2023-04-03T04:47:24;-1.90;99.90
17252;DHT22;8742;51.716;8.790;2023-04-03T04:49:51;-1.90;99.90
17252;DHT22;8742;51.716;8.790;2023-04-03T04:52:18;-1.90;99.90
17252;DHT22;8742;51.716;8.790;2023-04-03T04:54:45;-1.90;99.90
17252;DHT22;8742;51.716;8.790;2023-04-03T04:57:12;-1.90;99.90
17252;DHT22;8742;51.716;8.790;2023-04-03T04:59:40;-1.80;99.90
17252;DHT22;8742;51.716;8.790;2023-04-03T05:02:07;-1.90;99.90
17252;DHT22;8742;51.716;8.790;2023-04-03T05:04:33;-1.90;99.90
17252;DHT22;8742;51.716;8.790;2023-04-03T05:07:00;-1.90;99.90
17252;DHT22;8742;51.716;8.790;2023-04-03T05:09:27;-1.90;99.90
17252;DHT22;8742;51.716;8.790;2023-04-03T05:11:54;-1.90;99.90
17252;DHT22;8742;51.716;8.790;2023-04-03T05:14:21;-2.00;99.90
17252;DHT22;8742;51.716;8.790;2023-04-03T05:16:49;-2.00;99.90
17252;DHT22;8742;51.716;8.790;2023-04-03T05:19:18;-2.00;99.90
17252;DHT22;8742;51.716;8.790;2023-04-03T05:21:45;-2.00;99.90
17252;DHT22;8742;51.716;8.790;2023-04-03T05:24:12;-2.00;99.90
17252;DHT22;8742;51.716;8.790;2023-04-03T05:26:40;-1.90;99.90
17252;DHT22;8742;51.716;8.790;2023-04-03T05:29:07;-1.90;99.90
17252;DHT22;8742;51.716;8.790;2023-04-03T05:31:34;-1.90;99.90
17252;DHT22;8742;51.716;8.790;2023-04-03T05:34:02;-1.80;99.90
17252;DHT22;8742;51.716;8.790;2023-04-03T05:36:29;-1.80;99.90
17252;DHT22;8742;51.716;8.790;2023-04-03T05:38:56;-1.80;99.90
17252;DHT22;8742;51.716;8.790;2023-04-03T05:41:23;-1.80;99.90
17252;DHT22;8742;51.716;8.790;2023-04-03T05:43:50;-1.80;99.90
17252;DHT22;8742;51.716;8.790;2023-04-03T05:46:18;-1.70;99.90
17252;DHT22;8742;51.716;8.790;2023-04-03T05:48:45;-1.70;99.90
17252;DHT22;8742;51.716;8.790;2023-04-03T05:51:16;-1.70;99.90
17252;DHT22;8742;51.716;8.790;2023-04-03T05:53:44;-1.60;99.90
17252;DHT22;8742;51.716;8.790;2023-04-03T05:56:11;-1.60;99.90
17252;DHT22;8742;51.716;8.790;2023-04-03T05:58:38;-1.50;99.90
17252;DHT22;8742;51.716;8.790;2023-04-03T06:01:05;-1.50;99.90
17252;DHT22;8742;51.716;8.790;2023-04-03T06:03:32;-1.40;99.90
17252;DHT22;8742;51.716;8.790;2023-04-03T06:05:59;-1.30;99.90
17252;DHT22;8742;51.716;8.790;2023-04-03T06:08:27;-1.20;99.90
17252;DHT22;8742;51.716;8.790;2023-04-03T06:10:54;-1.10;99.90
17252;DHT22;8742;51.716;8.790;2023-04-03T06:13:21;-1.00;99.90
17252;DHT22;8742;51.716;8.790;2023-04-03T06:15:49;-0.80;99.90
17252;DHT22;8742;51.716;8.790;2023-04-03T06:18:16;-0.70;99.90
17252;DHT22;8742;51.716;8.790;2023-04-03T06:20:42;-0.60;99.90
17252;DHT22;8742;51.716;8.790;2023-04-03T06:23:10;-0.50;99.90
17252;DHT22;8742;51.716;8.790;2023-04-03T06:25:38;-0.40;99.90
17252;DHT22;8742;51.716;8.790;2023-04-03T06:28:06;-0.30;99.90
17252;DHT22;8742;51.716;8.790;2023-04-03T06:30:34;-0.20;99.90
17252;DHT22;8742;51.716;8.790;2023-04-03T06:33:02;0.00;99.90
17252;DHT22;8742;51.716;8.790;2023-04-03T06:35:29;0.00;99.90
17252;DHT22;8742;51.716;8.790;2023-04-03T06:37:56;0.10;99.90
17252;DHT22;8742;51.716;8.790;2023-04-03T06:40:24;0.20;99.90
17252;DHT22;8742;51.716;8.790;2023-04-03T06:42:53;0.30;99.90
17252;DHT22;8742;51.716;8.790;2023-04-03T06:45:20;0.50;99.90
17252;DHT22;8742;51.716;8.790;2023-04-03T06:47:47;0.60;99.90
17252;DHT22;8742;51.716;8.790;2023-04-03T06:50:14;0.60;99.90
17252;DHT22;8742;51.716;8.790;2023-04-03T06:52:41;0.80;99.90
17252;DHT22;8742;51.716;8.790;2023-04-03T06:55:08;0.90;99.90
17252;DHT22;8742;51.716;8.790;2023-04-03T06:57:35;1.00;99.90
17252;DHT22;8742;51.716;8.790;2023-04-03T07:00:05;1.10;99.90
17252;DHT22;8742;51.716;8.790;2023-04-03T07:02:32;1.20;99.90
17252;DHT22;8742;51.716;8.790;2023-04-03T07:04:59;1.20;99.90
17252;DHT22;8742;51.716;8.790;2023-04-03T07:07:28;1.40;99.90
17252;DHT22;8742;51.716;8.790;2023-04-03T07:09:55;1.50;99.90
17252;DHT22;8742;51.716;8.790;2023-04-03T07:12:22;1.60;99.90
17252;DHT22;8742;51.716;8.790;2023-04-03T07:14:48;1.70;99.90
17252;DHT22;8742;51.716;8.790;2023-04-03T07:17:17;1.80;99.90
17252;DHT22;8742;51.716;8.790;2023-04-03T07:19:43;1.90;99.90
17252;DHT22;8742;51.716;8.790;2023-04-03T07:22:11;2.00;99.90
17252;DHT22;8742;51.716;8.790;2023-04-03T07:24:38;2.10;99.90
17252;DHT22;8742;51.716;8.790;2023-04-03T07:27:05;2.20;99.90
17252;DHT22;8742;51.716;8.790;2023-04-03T07:29:34;2.40;99.90
17252;DHT22;8742;51.716;8.790;2023-04-03T07:32:01;2.40;99.90
17252;DHT22;8742;51.716;8.790;2023-04-03T07:34:29;2.60;99.90
17252;DHT22;8742;51.716;8.790;2023-04-03T07:36:56;2.70;99.90
17252;DHT22;8742;51.716;8.790;2023-04-03T07:39:23;2.80;99.90
17252;DHT22;8742;51.716;8.790;2023-04-03T07:41:50;3.00;99.90
17252;DHT22;8742;51.716;8.790;2023-04-03T07:44:17;3.10;99.90
17252;DHT22;8742;51.716;8.790;2023-04-03T07:46:44;3.10;99.90
17252;DHT22;8742;51.716;8.790;2023-04-03T07:49:12;3.20;99.90
17252;DHT22;8742;51.716;8.790;2023-04-03T07:51:40;3.40;99.90
17252;DHT22;8742;51.716;8.790;2023-04-03T07:54:07;3.50;99.90
17252;DHT22;8742;51.716;8.790;2023-04-03T07:56:34;3.60;99.90
17252;DHT22;8742;51.716;8.790;2023-04-03T07:59:01;3.70;99.90
17252;DHT22;8742;51.716;8.790;2023-04-03T08:01:28;3.80;99.90
17252;DHT22;8742;51.716;8.790;2023-04-03T08:03:57;3.90;99.90
17252;DHT22;8742;51.716;8.790;2023-04-03T08:06:24;4.00;99.90
17252;DHT22;8742;51.716;8.790;2023-04-03T08:08:52;4.10;99.90
17252;DHT22;8742;51.716;8.790;2023-04-03T08:11:19;4.20;99.90
17252;DHT22;8742;51.716;8.790;2023-04-03T08:13:46;4.30;99.90
17252;DHT22;8742;51.716;8.790;2023-04-03T08:16:17;4.40;99.90
17252;DHT22;8742;51.716;8.790;2023-04-03T08:18:44;4.60;99.90
17252;DHT22;8742;51.716;8.790;2023-04-03T08:21:12;5.00;99.90
17252;DHT22;8742;51.716;8.790;2023-04-03T08:23:39;5.80;99.90
17252;DHT22;8742;51.716;8.790;2023-04-03T08:26:09;6.50;99.90
17252;DHT22;8742;51.716;8.790;2023-04-03T08:28:38;7.30;99.90
17252;DHT22;8742;51.716;8.790;2023-04-03T08:31:05;8.00;99.90
17252;DHT22;8742;51.716;8.790;2023-04-03T08:33:33;8.60;99.90
17252;DHT22;8742;51.716;8.790;2023-04-03T08:36:02;9.20;99.90
17252;DHT22;8742;51.716;8.790;2023-04-03T08:38:29;9.70;99.90
17252;DHT22;8742;51.716;8.790;2023-04-03T08:41:04;10.00;99.90
17252;DHT22;8742;51.716;8.790;2023-04-03T08:43:44;10.20;99.90
17252;DHT22;8742;51.716;8.790;2023-04-03T08:46:17;10.50;99.90
17252;DHT22;8742;51.716;8.790;2023-04-03T08:48:47;10.80;99.90
17252;DHT22;8742;51.716;8.790;2023-04-03T08:51:18;11.10;99.90
17252;DHT22;8742;51.716;8.790;2023-04-03T08:53:51;11.40;99.90
17252;DHT22;8742;51.716;8.790;2023-04-03T08:56:21;11.70;99.90
17252;DHT22;8742;51.716;8.790;2023-04-03T08:58:55;11.90;99.90
17252;DHT22;8742;51.716;8.790;2023-04-03T09:01:26;12.10;99.90
17252;DHT22;8742;51.716;8.790;2023-04-03T09:03:54;12.00;99.90
17252;DHT22;8742;51.716;8.790;2023-04-03T09:06:22;11.90;98.20
17252;DHT22;8742;51.716;8.790;2023-04-03T09:08:53;11.80;99.90
17252;DHT22;8742;51.716;8.790;2023-04-03T09:11:25;12.00;99.90
17252;DHT22;8742;51.716;8.790;2023-04-03T09:13:59;12.30;99.90
17252;DHT22;8742;51.716;8.790;2023-04-03T09:16:36;12.60;99.00
17252;DHT22;8742;51.716;8.790;2023-04-03T09:19:11;12.70;95.10
17252;DHT22;8742;51.716;8.790;2023-04-03T09:21:41;12.60;94.70
17252;DHT22;8742;51.716;8.790;2023-04-03T09:24:10;12.50;92.60
17252;DHT22;8742;51.716;8.790;2023-04-03T09:26:42;12.00;93.00
17252;DHT22;8742;51.716;8.790;2023-04-03T09:29:16;11.80;91.20
17252;DHT22;8742;51.716;8.790;2023-04-03T09:31:44;11.90;93.70
17252;DHT22;8742;51.716;8.790;2023-04-03T09:34:17;12.10;91.30
17252;DHT22;8742;51.716;8.790;2023-04-03T09:36:47;12.10;90.40
17252;DHT22;8742;51.716;8.790;2023-04-03T09:39:16;12.00;91.90
17252;DHT22;8742;51.716;8.790;2023-04-03T09:41:55;12.20;90.00
17252;DHT22;8742;51.716;8.790;2023-04-03T09:44:25;12.20;82.80
17252;DHT22;8742;51.716;8.790;2023-04-03T09:46:52;12.20;84.30
17252;DHT22;8742;51.716;8.790;2023-04-03T09:49:19;12.30;87.60
17252;DHT22;8742;51.716;8.790;2023-04-03T09:51:46;12.40;85.80
17252;DHT22;8742;51.716;8.790;2023-04-03T09:54:32;12.50;84.80
17252;DHT22;8742;51.716;8.790;2023-04-03T09:57:06;12.50;81.80
17252;DHT22;8742;51.716;8.790;2023-04-03T09:59:35;12.40;83.00
17252;DHT22;8742;51.716;8.790;2023-04-03T10:02:04;12.50;89.40
17252;DHT22;8742;51.716;8.790;2023-04-03T10:04:43;12.80;80.10
17252;DHT22;8742;51.716;8.790;2023-04-03T10:07:28;12.80;80.20
17252;DHT22;8742;51.716;8.790;2023-04-03T10:09:56;12.70;75.90
17252;DHT22;8742;51.716;8.790;2023-04-03T10:12:24;12.70;79.60
17252;DHT22;8742;51.716;8.790;2023-04-03T10:14:57;12.70;79.80
17252;DHT22;8742;51.716;8.790;2023-04-03T10:17:35;12.70;78.20
17252;DHT22;8742;51.716;8.790;2023-04-03T10:20:09;12.60;78.20
17252;DHT22;8742;51.716;8.790;2023-04-03T10:22:48;12.40;78.10
17252;DHT22;8742;51.716;8.790;2023-04-03T10:25:25;12.20;76.80
17252;DHT22;8742;51.716;8.790;2023-04-03T10:27:56;11.70;76.90
17252;DHT22;8742;51.716;8.790;2023-04-03T10:30:36;11.30;81.70
17252;DHT22;8742;51.716;8.790;2023-04-03T10:33:20;11.00;85.20
17252;DHT22;8742;51.716;8.790;2023-04-03T10:36:02;10.80;85.10
17252;DHT22;8742;51.716;8.790;2023-04-03T10:38:43;10.60;84.30
17252;DHT22;8742;51.716;8.790;2023-04-03T10:41:17;10.30;85.20
17252;DHT22;8742;51.716;8.790;2023-04-03T10:43:52;9.90;87.20
17252;DHT22;8742;51.716;8.790;2023-04-03T10:46:28;9.50;85.40
17252;DHT22;8742;51.716;8.790;2023-04-03T10:49:05;9.20;88.00
17252;DHT22;8742;51.716;8.790;2023-04-03T10:51:41;9.00;89.40
17252;DHT22;8742;51.716;8.790;2023-04-03T10:54:11;9.00;89.40
17252;DHT22;8742;51.716;8.790;2023-04-03T10:56:42;9.60;91.90
17252;DHT22;8742;51.716;8.790;2023-04-03T10:59:21;10.10;89.90
17252;DHT22;8742;51.716;8.790;2023-04-03T11:01:53;10.60;89.80
17252;DHT22;8742;51.716;8.790;2023-04-03T11:04:23;11.50;87.50
17252;DHT22;8742;51.716;8.790;2023-04-03T11:06:57;12.30;84.30
17252;DHT22;8742;51.716;8.790;2023-04-03T11:09:27;12.90;84.20
17252;DHT22;8742;51.716;8.790;2023-04-03T11:11:58;13.60;81.50
17252;DHT22;8742;51.716;8.790;2023-04-03T11:14:29;14.20;88.40
17252;DHT22;8742;51.716;8.790;2023-04-03T11:17:08;14.80;88.00
17252;DHT22;8742;51.716;8.790;2023-04-03T11:19:42;15.30;79.60
17252;DHT22;8742;51.716;8.790;2023-04-03T11:22:18;15.80;86.50
17252;DHT22;8742;51.716;8.790;2023-04-03T11:24:55;15.90;83.10
17252;DHT22;8742;51.716;8.790;2023-04-03T11:27:23;15.60;83.10
17252;DHT22;8742;51.716;8.790;2023-04-03T11:29:53;15.20;79.30
17252;DHT22;8742;51.716;8.790;2023-04-03T11:32:41;14.70;80.70
17252;DHT22;8742;51.716;8.790;2023-04-03T11:35:11;14.00;78.10
17252;DHT22;8742;51.716;8.790;2023-04-03T11:37:40;13.30;80.30
17252;DHT22;8742;51.716;8.790;2023-04-03T11:40:21;12.70;82.80
17252;DHT22;8742;51.716;8.790;2023-04-03T11:42:51;12.20;82.70
17252;DHT22;8742;51.716;8.790;2023-04-03T11:45:38;11.80;85.70
17252;DHT22;8742;51.716;8.790;2023-04-03T11:48:51;11.40;84.70
17252;DHT22;8742;51.716;8.790;2023-04-03T11:51:51;11.00;85.80
17252;DHT22;8742;51.716;8.790;2023-04-03T11:54:44;10.80;86.60
17252;DHT22;8742;51.716;8.790;2023-04-03T11:57:44;10.80;87.70
17252;DHT22;8742;51.716;8.790;2023-04-03T12:10:13;10.50;87.70
17252;DHT22;8742;51.716;8.790;2023-04-03T12:12:41;10.50;90.40
17252;DHT22;8742;51.716;8.790;2023-04-03T12:15:44;11.50;91.40
17252;DHT22;8742;51.716;8.790;2023-04-03T12:21:18;12.60;84.20
17252;DHT22;8742;51.716;8.790;2023-04-03T12:24:03;12.30;85.00
17252;DHT22;8742;51.716;8.790;2023-04-03T12:26:36;12.70;90.40
17252;DHT22;8742;51.716;8.790;2023-04-03T12:29:15;12.80;84.70
17252;DHT22;8742;51.716;8.790;2023-04-03T12:31:50;12.70;86.20
17252;DHT22;8742;51.716;8.790;2023-04-03T12:34:36;12.60;83.60
17252;DHT22;8742;51.716;8.790;2023-04-03T12:37:12;12.60;85.30
17252;DHT22;8742;51.716;8.790;2023-04-03T12:39:58;12.40;84.90
17252;DHT22;8742;51.716;8.790;2023-04-03T12:42:40;12.40;84.80
17252;DHT22;8742;51.716;8.790;2023-04-03T12:45:15;13.30;84.50
17252;DHT22;8742;51.716;8.790;2023-04-03T12:47:44;13.40;85.00
17252;DHT22;8742;51.716;8.790;2023-04-03T12:50:21;13.10;82.40
17252;DHT22;8742;51.716;8.790;2023-04-03T12:52:54;12.60;83.40
17252;DHT22;8742;51.716;8.790;2023-04-03T12:55:22;12.20;83.20
17252;DHT22;8742;51.716;8.790;2023-04-03T12:57:51;12.40;81.80
17252;DHT22;8742;51.716;8.790;2023-04-03T13:00:35;13.20;81.40
17252;DHT22;8742;51.716;8.790;2023-04-03T13:03:05;14.30;85.30
17252;DHT22;8742;51.716;8.790;2023-04-03T13:05:33;15.20;77.80
17252;DHT22;8742;51.716;8.790;2023-04-03T13:08:03;15.80;80.70
17252;DHT22;8742;51.716;8.790;2023-04-03T13:10:31;16.60;81.00
17252;DHT22;8742;51.716;8.790;2023-04-03T13:13:08;17.20;82.80
17252;DHT22;8742;51.716;8.790;2023-04-03T13:15:42;17.60;73.50
17252;DHT22;8742;51.716;8.790;2023-04-03T13:18:26;16.90;73.10
17252;DHT22;8742;51.716;8.790;2023-04-03T13:20:58;15.60;73.50
17252;DHT22;8742;51.716;8.790;2023-04-03T13:23:26;14.50;75.90
17252;DHT22;8742;51.716;8.790;2023-04-03T13:25:53;14.20;78.90
17252;DHT22;8742;51.716;8.790;2023-04-03T13:28:23;14.00;78.00
17252;DHT22;8742;51.716;8.790;2023-04-03T13:31:06;13.40;75.20
17252;DHT22;8742;51.716;8.790;2023-04-03T13:33:36;12.70;76.70
17252;DHT22;8742;51.716;8.790;2023-04-03T13:36:06;12.70;77.30
17252;DHT22;8742;51.716;8.790;2023-04-03T13:38:34;13.40;81.40
17252;DHT22;8742;51.716;8.790;2023-04-03T13:41:04;13.90;78.50
17252;DHT22;8742;51.716;8.790;2023-04-03T13:43:34;14.20;80.60
17252;DHT22;8742;51.716;8.790;2023-04-03T13:46:05;14.50;78.90
17252;DHT22;8742;51.716;8.790;2023-04-03T13:48:38;14.30;79.10
17252;DHT22;8742;51.716;8.790;2023-04-03T13:51:16;14.70;75.70
17252;DHT22;8742;51.716;8.790;2023-04-03T13:53:45;15.20;74.70
17252;DHT22;8742;51.716;8.790;2023-04-03T13:56:19;15.60;77.00
17252;DHT22;8742;51.716;8.790;2023-04-03T13:58:58;15.80;73.40
17252;DHT22;8742;51.716;8.790;2023-04-03T14:01:26;15.80;73.60
17252;DHT22;8742;51.716;8.790;2023-04-03T14:04:01;16.20;75.10
17252;DHT22;8742;51.716;8.790;2023-04-03T14:06:36;16.80;72.20
17252;DHT22;8742;51.716;8.790;2023-04-03T14:09:03;17.40;75.50
17252;DHT22;8742;51.716;8.790;2023-04-03T14:11:30;18.00;69.90
17252;DHT22;8742;51.716;8.790;2023-04-03T14:14:02;18.50;67.00
17252;DHT22;8742;51.716;8.790;2023-04-03T14:16:33;18.80;67.40
17252;DHT22;8742;51.716;8.790;2023-04-03T14:19:03;18.80;67.40
17252;DHT22;8742;51.716;8.790;2023-04-03T14:21:30;18.10;65.70
17252;DHT22;8742;51.716;8.790;2023-04-03T14:23:57;17.00;64.20
17252;DHT22;8742;51.716;8.790;2023-04-03T14:26:25;15.60;65.50
17252;DHT22;8742;51.716;8.790;2023-04-03T14:28:54;15.00;71.60
17252;DHT22;8742;51.716;8.790;2023-04-03T14:31:22;15.30;71.20
17252;DHT22;8742;51.716;8.790;2023-04-03T14:33:49;15.90;70.70
17252;DHT22;8742;51.716;8.790;2023-04-03T14:36:18;16.50;68.10
17252;DHT22;8742;51.716;8.790;2023-04-03T14:38:47;16.80;64.90
17252;DHT22;8742;51.716;8.790;2023-04-03T14:41:16;17.00;65.10
17252;DHT22;8742;51.716;8.790;2023-04-03T14:43:44;17.50;69.30
17252;DHT22;8742;51.716;8.790;2023-04-03T14:46:14;18.00;65.30
17252;DHT22;8742;51.716;8.790;2023-04-03T14:48:43;18.30;62.00
17252;DHT22;8742;51.716;8.790;2023-04-03T14:51:11;18.60;62.20
17252;DHT22;8742;51.716;8.790;2023-04-03T14:53:38;18.90;62.60
17252;DHT22;8742;51.716;8.790;2023-04-03T14:56:12;19.10;65.20
17252;DHT22;8742;51.716;8.790;2023-04-03T14:58:39;18.70;63.70
17252;DHT22;8742;51.716;8.790;2023-04-03T15:01:06;17.60;64.30
17252;DHT22;8742;51.716;8.790;2023-04-03T15:03:32;16.70;66.40
17252;DHT22;8742;51.716;8.790;2023-04-03T15:06:01;16.80;68.00
17252;DHT22;8742;51.716;8.790;2023-04-03T15:08:28;17.40;67.90
17252;DHT22;8742;51.716;8.790;2023-04-03T15:10:56;18.20;63.70
17252;DHT22;8742;51.716;8.790;2023-04-03T15:13:24;18.20;63.20
17252;DHT22;8742;51.716;8.790;2023-04-03T15:15:52;17.50;63.60
17252;DHT22;8742;51.716;8.790;2023-04-03T15:18:21;16.40;63.30
17252;DHT22;8742;51.716;8.790;2023-04-03T15:20:48;15.70;66.90
17252;DHT22;8742;51.716;8.790;2023-04-03T15:23:17;15.90;67.30
17252;DHT22;8742;51.716;8.790;2023-04-03T15:25:45;16.30;66.60
17252;DHT22;8742;51.716;8.790;2023-04-03T15:28:18;16.70;64.80
17252;DHT22;8742;51.716;8.790;2023-04-03T15:30:46;17.20;66.00
17252;DHT22;8742;51.716;8.790;2023-04-03T15:33:13;17.40;63.00
17252;DHT22;8742;51.716;8.790;2023-04-03T15:35:41;17.60;66.80
17252;DHT22;8742;51.716;8.790;2023-04-03T15:38:08;17.90;65.50
17252;DHT22;8742;51.716;8.790;2023-04-03T15:40:37;18.20;63.30
17252;DHT22;8742;51.716;8.790;2023-04-03T15:43:04;18.40;63.70
17252;DHT22;8742;51.716;8.790;2023-04-03T15:45:32;18.60;62.90
17252;DHT22;8742;51.716;8.790;2023-04-03T15:48:00;18.70;64.00
17252;DHT22;8742;51.716;8.790;2023-04-03T15:50:27;18.60;59.80
17252;DHT22;8742;51.716;8.790;2023-04-03T15:52:54;18.40;60.90
17252;DHT22;8742;51.716;8.790;2023-04-03T15:55:25;18.00;64.00
17252;DHT22;8742;51.716;8.790;2023-04-03T15:57:53;17.80;63.00
17252;DHT22;8742;51.716;8.790;2023-04-03T16:00:21;17.30;61.40
17252;DHT22;8742;51.716;8.790;2023-04-03T16:02:50;16.70;63.50
17252;DHT22;8742;51.716;8.790;2023-04-03T16:05:18;15.90;62.80
17252;DHT22;8742;51.716;8.790;2023-04-03T16:07:45;14.80;61.90
17252;DHT22;8742;51.716;8.790;2023-04-03T16:10:15;13.80;63.10
17252;DHT22;8742;51.716;8.790;2023-04-03T16:12:42;13.00;65.60
17252;DHT22;8742;51.716;8.790;2023-04-03T16:15:11;12.30;66.70
17252;DHT22;8742;51.716;8.790;2023-04-03T16:17:39;11.70;69.10
17252;DHT22;8742;51.716;8.790;2023-04-03T16:20:09;11.30;70.30
17252;DHT22;8742;51.716;8.790;2023-04-03T16:22:37;10.90;69.90